sensor_id;sensor_type;location;lat;lon;timestamp;P1;durP1;ratioP1;P2;durP2;ratioP2
60233;SDS011;49514;43.538;-5.708;2023-04-03T00:01:41;11.70;;;1.50;;
60233;SDS011;49514;43.538;-5.708;2023-04-03T00:04:08;8.32;;;1.40;;
60233;SDS011;49514;43.538;-5.708;2023-04-03T00:06:35;11.43;;;1.88;;
60233;SDS011;49514;43.538;-5.708;2023-04-03T00:09:02;7.13;;;1.25;;
60233;SDS011;49514;43.538;-5.708;2023-04-03T00:11:29;9.88;;;1.52;;
60233;SDS011;49514;43.538;-5.708;2023-04-03T00:13:55;8.57;;;1.50;;
60233;SDS011;49514;43.538;-5.708;2023-04-03T00:16:22;7.70;;;1.50;;
60233;SDS011;49514;43.538;-5.708;2023-04-03T00:18:48;10.07;;;1.50;;
60233;SDS011;49514;43.538;-5.708;2023-04-03T00:21:15;11.48;;;1.67;;
60233;SDS011;49514;43.538;-5.708;2023-04-03T00:23:42;9.02;;;1.25;;
60233;SDS011;49514;43.538;-5.708;2023-04-03T00:26:09;7.93;;;1.50;;
60233;SDS011;49514;43.538;-5.708;2023-04-03T00:28:36;10.38;;;1.30;;
60233;SDS011;49514;43.538;-5.708;2023-04-03T00:31:03;7.65;;;1.20;;
60233;SDS011;49514;43.538;-5.708;2023-04-03T00:33:30;9.98;;;1.83;;
60233;SDS011;49514;43.538;-5.708;2023-04-03T00:35:57;13.32;;;1.80;;
60233;SDS011;49514;43.538;-5.708;2023-04-03T00:38:23;5.63;;;1.50;;
60233;SDS011;49514;43.538;-5.708;2023-04-03T00:40:51;5.82;;;1.33;;
60233;SDS011;49514;43.538;-5.708;2023-04-03T00:43:19;9.23;;;1.63;;
60233;SDS011;49514;43.538;-5.708;2023-04-03T00:45:57;10.63;;;2.13;;
60233;SDS011;49514;43.538;-5.708;2023-04-03T00:48:32;8.60;;;1.20;;
60233;SDS011;49514;43.538;-5.708;2023-04-03T00:51:02;8.60;;;1.85;;
60233;SDS011;49514;43.538;-5.708;2023-04-03T00:56:21;12.50;;;1.80;;
60233;SDS011;49514;43.538;-5.708;2023-04-03T01:01:21;8.05;;;1.95;;
60233;SDS011;49514;43.538;-5.708;2023-04-03T01:03:50;6.50;;;1.48;;
60233;SDS011;49514;43.538;-5.708;2023-04-03T01:06:20;9.82;;;1.63;;
60233;SDS011;49514;43.538;-5.708;2023-04-03T01:08:53;9.80;;;1.75;;
60233;SDS011;49514;43.538;-5.708;2023-04-03T01:11:21;6.43;;;1.23;;
60233;SDS011;49514;43.538;-5.708;2023-04-03T01:13:49;8.98;;;1.38;;
60233;SDS011;49514;43.538;-5.708;2023-04-03T01:16:15;7.72;;;1.50;;
60233;SDS011;49514;43.538;-5.708;2023-04-03T01:18:42;6.88;;;1.45;;
60233;SDS011;49514;43.538;-5.708;2023-04-03T01:26:07;11.68;;;1.35;;
60233;SDS011;49514;43.538;-5.708;2023-04-03T01:28:35;4.40;;;1.20;;
60233;SDS011;49514;43.538;-5.708;2023-04-03T01:31:06;6.80;;;1.23;;
60233;SDS011;49514;43.538;-5.708;2023-04-03T01:33:42;8.82;;;1.63;;
60233;SDS011;49514;43.538;-5.708;2023-04-03T01:36:09;10.48;;;1.25;;
60233;SDS011;49514;43.538;-5.708;2023-04-03T01:38:42;5.95;;;1.25;;
60233;SDS011;49514;43.538;-5.708;2023-04-03T01:41:09;7.30;;;1.70;;
60233;SDS011;49514;43.538;-5.708;2023-04-03T01:43:36;5.95;;;1.38;;
60233;SDS011;49514;43.538;-5.708;2023-04-03T01:46:03;9.38;;;2.03;;
60233;SDS011;49514;43.538;-5.708;2023-04-03T01:48:29;8.32;;;1.67;;
60233;SDS011;49514;43.538;-5.708;2023-04-03T01:50:56;8.00;;;1.73;;
60233;SDS011;49514;43.538;-5.708;2023-04-03T01:53:23;9.65;;;1.48;;
60233;SDS011;49514;43.538;-5.708;2023-04-03T01:55:49;13.88;;;2.05;;
60233;SDS011;49514;43.538;-5.708;2023-04-03T01:58:16;12.85;;;2.30;;
60233;SDS011;49514;43.538;-5.708;2023-04-03T02:00:43;8.40;;;2.15;;
60233;SDS011;49514;43.538;-5.708;2023-04-03T02:03:10;9.02;;;1.73;;
60233;SDS011;49514;43.538;-5.708;2023-04-03T02:05:37;7.53;;;1.92;;
60233;SDS011;49514;43.538;-5.708;2023-04-03T02:08:05;8.02;;;1.90;;
60233;SDS011;49514;43.538;-5.708;2023-04-03T05:04:27;8.68;;;2.00;;
60233;SDS011;49514;43.538;-5.708;2023-04-03T05:07:00;16.83;;;2.38;;
60233;SDS011;49514;43.538;-5.708;2023-04-03T05:09:29;13.68;;;3.10;;
60233;SDS011;49514;43.538;-5.708;2023-04-03T05:11:56;17.42;;;3.28;;
60233;SDS011;49514;43.538;-5.708;2023-04-03T05:14:26;20.13;;;4.00;;
60233;SDS011;49514;43.538;-5.708;2023-04-03T05:16:53;17.23;;;3.42;;
60233;SDS011;49514;43.538;-5.708;2023-04-03T05:19:23;17.60;;;3.92;;
60233;SDS011;49514;43.538;-5.708;2023-04-03T05:21:51;24.92;;;3.63;;
60233;SDS011;49514;43.538;-5.708;2023-04-03T05:24:18;28.42;;;4.45;;
60233;SDS011;49514;43.538;-5.708;2023-04-03T05:26:44;22.75;;;4.68;;
60233;SDS011;49514;43.538;-5.708;2023-04-03T05:29:12;22.48;;;4.47;;
60233;SDS011;49514;43.538;-5.708;2023-04-03T05:31:39;23.30;;;4.95;;
60233;SDS011;49514;43.538;-5.708;2023-04-03T05:34:08;36.53;;;5.57;;
60233;SDS011;49514;43.538;-5.708;2023-04-03T05:36:36;20.25;;;4.55;;
60233;SDS011;49514;43.538;-5.708;2023-04-03T05:39:05;24.83;;;4.68;;
60233;SDS011;49514;43.538;-5.708;2023-04-03T05:41:35;21.95;;;3.83;;
60233;SDS011;49514;43.538;-5.708;2023-04-03T05:44:02;16.75;;;3.65;;
60233;SDS011;49514;43.538;-5.708;2023-04-03T05:46:29;17.55;;;3.60;;
60233;SDS011;49514;43.538;-5.708;2023-04-03T05:48:57;13.20;;;3.53;;
60233;SDS011;49514;43.538;-5.708;2023-04-03T05:51:30;12.32;;;3.50;;
60233;SDS011;49514;43.538;-5.708;2023-04-03T05:54:26;15.88;;;3.92;;
60233;SDS011;49514;43.538;-5.708;2023-04-03T05:57:16;15.18;;;3.80;;
60233;SDS011;49514;43.538;-5.708;2023-04-03T05:59:44;16.60;;;3.30;;
60233;SDS011;49514;43.538;-5.708;2023-04-03T06:02:14;17.02;;;3.53;;
60233;SDS011;49514;43.538;-5.708;2023-04-03T06:04:43;24.40;;;5.20;;
60233;SDS011;49514;43.538;-5.708;2023-04-03T06:07:11;25.52;;;4.85;;
60233;SDS011;49514;43.538;-5.708;2023-04-03T06:09:40;18.52;;;4.57;;
60233;SDS011;49514;43.538;-5.708;2023-04-03T06:12:07;25.80;;;4.85;;
60233;SDS011;49514;43.538;-5.708;2023-04-03T06:14:34;38.13;;;7.55;;
60233;SDS011;49514;43.538;-5.708;2023-04-03T06:17:01;39.13;;;7.18;;
60233;SDS011;49514;43.538;-5.708;2023-04-03T06:19:28;33.78;;;6.63;;
60233;SDS011;49514;43.538;-5.708;2023-04-03T06:21:56;25.02;;;5.45;;
60233;SDS011;49514;43.538;-5.708;2023-04-03T06:24:23;14.73;;;3.53;;
60233;SDS011;49514;43.538;-5.708;2023-04-03T06:26:51;20.08;;;4.30;;
60233;SDS011;49514;43.538;-5.708;2023-04-03T06:29:18;24.70;;;4.20;;
60233;SDS011;49514;43.538;-5.708;2023-04-03T06:31:46;15.00;;;4.20;;
60233;SDS011;49514;43.538;-5.708;2023-04-03T06:34:13;16.50;;;3.90;;
60233;SDS011;49514;43.538;-5.708;2023-04-03T06:36:41;18.58;;;4.70;;
60233;SDS011;49514;43.538;-5.708;2023-04-03T06:39:11;27.02;;;5.00;;
60233;SDS011;49514;43.538;-5.708;2023-04-03T06:41:43;29.70;;;5.70;;
60233;SDS011;49514;43.538;-5.708;2023-04-03T06:44:10;27.88;;;5.82;;
60233;SDS011;49514;43.538;-5.708;2023-04-03T06:46:38;21.75;;;5.05;;
60233;SDS011;49514;43.538;-5.708;2023-04-03T06:49:05;35.67;;;5.35;;
60233;SDS011;49514;43.538;-5.708;2023-04-03T06:51:35;24.73;;;5.78;;
60233;SDS011;49514;43.538;-5.708;2023-04-03T06:54:04;24.90;;;5.80;;
60233;SDS011;49514;43.538;-5.708;2023-04-03T06:56:32;45.03;;;6.47;;
60233;SDS011;49514;43.538;-5.708;2023-04-03T06:58:58;37.97;;;5.70;;
60233;SDS011;49514;43.538;-5.708;2023-04-03T07:01:27;26.48;;;5.20;;
60233;SDS011;49514;43.538;-5.708;2023-04-03T07:03:56;22.92;;;4.63;;
60233;SDS011;49514;43.538;-5.708;2023-04-03T07:06:23;20.85;;;6.63;;
60233;SDS011;49514;43.538;-5.708;2023-04-03T07:08:52;29.83;;;6.20;;
60233;SDS011;49514;43.538;-5.708;2023-04-03T07:11:20;28.45;;;4.35;;
60233;SDS011;49514;43.538;-5.708;2023-04-03T07:13:47;17.30;;;4.07;;
60233;SDS011;49514;43.538;-5.708;2023-04-03T07:16:14;20.05;;;4.30;;
60233;SDS011;49514;43.538;-5.708;2023-04-03T07:18:41;18.90;;;3.65;;
60233;SDS011;49514;43.538;-5.708;2023-04-03T07:21:07;16.20;;;3.40;;
60233;SDS011;49514;43.538;-5.708;2023-04-03T07:23:34;16.02;;;3.03;;
60233;SDS011;49514;43.538;-5.708;2023-04-03T07:26:00;13.82;;;3.28;;
60233;SDS011;49514;43.538;-5.708;2023-04-03T07:28:27;8.15;;;2.75;;
60233;SDS011;49514;43.538;-5.708;2023-04-03T07:33:27;11.43;;;2.58;;
60233;SDS011;49514;43.538;-5.708;2023-04-03T07:35:54;10.98;;;3.28;;
60233;SDS011;49514;43.538;-5.708;2023-04-03T07:38:20;11.77;;;3.00;;
60233;SDS011;49514;43.538;-5.708;2023-04-03T07:40:48;14.07;;;3.38;;
60233;SDS011;49514;43.538;-5.708;2023-04-03T07:43:15;20.70;;;3.40;;
60233;SDS011;49514;43.538;-5.708;2023-04-03T07:45:43;14.18;;;3.25;;
60233;SDS011;49514;43.538;-5.708;2023-04-03T07:48:10;15.55;;;2.65;;
60233;SDS011;49514;43.538;-5.708;2023-04-03T07:50:39;7.70;;;2.20;;
60233;SDS011;49514;43.538;-5.708;2023-04-03T07:53:06;8.40;;;2.40;;
60233;SDS011;49514;43.538;-5.708;2023-04-03T07:55:33;8.75;;;2.25;;
60233;SDS011;49514;43.538;-5.708;2023-04-03T07:58:03;12.20;;;2.17;;
60233;SDS011;49514;43.538;-5.708;2023-04-03T08:00:30;11.38;;;3.00;;
60233;SDS011;49514;43.538;-5.708;2023-04-03T08:02:57;12.95;;;2.22;;
60233;SDS011;49514;43.538;-5.708;2023-04-03T08:05:23;11.50;;;2.17;;
60233;SDS011;49514;43.538;-5.708;2023-04-03T08:07:50;10.55;;;1.95;;
60233;SDS011;49514;43.538;-5.708;2023-04-03T08:10:17;7.85;;;2.13;;
60233;SDS011;49514;43.538;-5.708;2023-04-03T08:12:45;6.90;;;2.28;;
60233;SDS011;49514;43.538;-5.708;2023-04-03T08:15:12;12.68;;;2.60;;
60233;SDS011;49514;43.538;-5.708;2023-04-03T08:17:39;15.93;;;3.08;;
60233;SDS011;49514;43.538;-5.708;2023-04-03T08:20:06;10.35;;;2.20;;
60233;SDS011;49514;43.538;-5.708;2023-04-03T08:22:35;10.27;;;1.92;;
60233;SDS011;49514;43.538;-5.708;2023-04-03T08:25:02;12.02;;;2.33;;
60233;SDS011;49514;43.538;-5.708;2023-04-03T08:27:29;24.38;;;2.65;;
60233;SDS011;49514;43.538;-5.708;2023-04-03T08:29:56;7.07;;;1.70;;
60233;SDS011;49514;43.538;-5.708;2023-04-03T08:32:23;9.35;;;1.75;;
60233;SDS011;49514;43.538;-5.708;2023-04-03T08:34:50;6.18;;;1.50;;
60233;SDS011;49514;43.538;-5.708;2023-04-03T08:37:17;8.48;;;1.80;;
60233;SDS011;49514;43.538;-5.708;2023-04-03T08:39:44;17.48;;;2.25;;
60233;SDS011;49514;43.538;-5.708;2023-04-03T08:42:14;8.05;;;1.77;;
60233;SDS011;49514;43.538;-5.708;2023-04-03T08:48:26;7.20;;;1.67;;
60233;SDS011;49514;43.538;-5.708;2023-04-03T08:50:58;8.82;;;1.88;;
60233;SDS011;49514;43.538;-5.708;2023-04-03T08:53:32;11.52;;;2.22;;
60233;SDS011;49514;43.538;-5.708;2023-04-03T08:56:05;7.47;;;1.88;;
60233;SDS011;49514;43.538;-5.708;2023-04-03T09:01:17;9.05;;;2.00;;
60233;SDS011;49514;43.538;-5.708;2023-04-03T09:03:45;12.65;;;2.00;;
60233;SDS011;49514;43.538;-5.708;2023-04-03T09:08:49;7.40;;;1.80;;
60233;SDS011;49514;43.538;-5.708;2023-04-03T09:14:28;7.85;;;1.90;;
60233;SDS011;49514;43.538;-5.708;2023-04-03T09:17:13;7.60;;;1.55;;
60233;SDS011;49514;43.538;-5.708;2023-04-03T09:19:54;6.38;;;1.52;;
60233;SDS011;49514;43.538;-5.708;2023-04-03T09:22:38;9.25;;;1.70;;
60233;SDS011;49514;43.538;-5.708;2023-04-03T09:25:13;9.05;;;1.73;;
60233;SDS011;49514;43.538;-5.708;2023-04-03T09:27:41;7.80;;;1.38;;
60233;SDS011;49514;43.538;-5.708;2023-04-03T09:30:15;9.65;;;1.67;;
60233;SDS011;49514;43.538;-5.708;2023-04-03T09:32:51;12.48;;;2.22;;
60233;SDS011;49514;43.538;-5.708;2023-04-03T09:35:20;10.90;;;1.88;;
60233;SDS011;49514;43.538;-5.708;2023-04-03T09:37:50;12.05;;;1.88;;
60233;SDS011;49514;43.538;-5.708;2023-04-03T09:42:53;8.73;;;2.00;;
60233;SDS011;49514;43.538;-5.708;2023-04-03T09:45:23;6.18;;;1.73;;
60233;SDS011;49514;43.538;-5.708;2023-04-03T09:48:31;10.25;;;1.77;;
60233;SDS011;49514;43.538;-5.708;2023-04-03T09:50:55;10.15;;;1.80;;
60233;SDS011;49514;43.538;-5.708;2023-04-03T09:55:57;9.90;;;1.97;;
60233;SDS011;49514;43.538;-5.708;2023-04-03T09:58:29;12.15;;;2.13;;
60233;SDS011;49514;43.538;-5.708;2023-04-03T10:01:08;12.83;;;2.40;;
60233;SDS011;49514;43.538;-5.708;2023-04-03T10:03:46;12.13;;;2.37;;
60233;SDS011;49514;43.538;-5.708;2023-04-03T10:06:52;8.57;;;1.80;;
60233;SDS011;49514;43.538;-5.708;2023-04-03T10:09:30;9.00;;;1.60;;
60233;SDS011;49514;43.538;-5.708;2023-04-03T10:12:09;10.98;;;1.85;;
60233;SDS011;49514;43.538;-5.708;2023-04-03T10:14:39;9.57;;;1.88;;
60233;SDS011;49514;43.538;-5.708;2023-04-03T10:28:16;14.45;;;1.95;;
60233;SDS011;49514;43.538;-5.708;2023-04-03T10:36:07;20.77;;;2.28;;
60233;SDS011;49514;43.538;-5.708;2023-04-03T10:39:02;16.55;;;2.45;;
60233;SDS011;49514;43.538;-5.708;2023-04-03T10:44:42;16.83;;;2.20;;
60233;SDS011;49514;43.538;-5.708;2023-04-03T10:50:00;20.10;;;2.60;;
60233;SDS011;49514;43.538;-5.708;2023-04-03T10:53:08;25.00;;;2.33;;
60233;SDS011;49514;43.538;-5.708;2023-04-03T10:58:38;19.92;;;2.40;;
60233;SDS011;49514;43.538;-5.708;2023-04-03T11:01:11;26.33;;;2.88;;
60233;SDS011;49514;43.538;-5.708;2023-04-03T11:03:54;20.02;;;2.40;;
60233;SDS011;49514;43.538;-5.708;2023-04-03T11:06:32;22.70;;;2.65;;
60233;SDS011;49514;43.538;-5.708;2023-04-03T11:09:27;22.98;;;2.70;;
60233;SDS011;49514;43.538;-5.708;2023-04-03T11:12:15;23.90;;;3.00;;
60233;SDS011;49514;43.538;-5.708;2023-04-03T11:14:47;20.23;;;2.30;;
60233;SDS011;49514;43.538;-5.708;2023-04-03T11:22:25;28.23;;;2.60;;
60233;SDS011;49514;43.538;-5.708;2023-04-03T11:25:02;22.67;;;2.45;;
60233;SDS011;49514;43.538;-5.708;2023-04-03T11:27:32;32.22;;;3.17;;
60233;SDS011;49514;43.538;-5.708;2023-04-03T11:30:05;26.77;;;3.08;;
60233;SDS011;49514;43.538;-5.708;2023-04-03T11:32:41;21.75;;;2.67;;
60233;SDS011;49514;43.538;-5.708;2023-04-03T11:35:31;22.97;;;2.57;;
60233;SDS011;49514;43.538;-5.708;2023-04-03T11:38:01;39.97;;;3.63;;
60233;SDS011;49514;43.538;-5.708;2023-04-03T11:40:32;28.77;;;3.10;;
60233;SDS011;49514;43.538;-5.708;2023-04-03T11:43:16;26.15;;;2.60;;
60233;SDS011;49514;43.538;-5.708;2023-04-03T11:50:55;24.77;;;2.65;;
60233;SDS011;49514;43.538;-5.708;2023-04-03T11:53:48;26.77;;;3.08;;
60233;SDS011;49514;43.538;-5.708;2023-04-03T12:01:45;21.95;;;2.85;;
60233;SDS011;49514;43.538;-5.708;2023-04-03T12:04:23;19.73;;;2.28;;
60233;SDS011;49514;43.538;-5.708;2023-04-03T12:06:59;17.45;;;2.47;;
60233;SDS011;49514;43.538;-5.708;2023-04-03T12:09:34;16.98;;;2.30;;
60233;SDS011;49514;43.538;-5.708;2023-04-03T12:12:22;12.82;;;1.90;;
60233;SDS011;49514;43.538;-5.708;2023-04-03T12:15:11;19.77;;;2.28;;
60233;SDS011;49514;43.538;-5.708;2023-04-03T12:21:16;11.02;;;2.20;;
60233;SDS011;49514;43.538;-5.708;2023-04-03T12:26:34;13.57;;;2.00;;
60233;SDS011;49514;43.538;-5.708;2023-04-03T12:29:23;9.65;;;1.33;;
60233;SDS011;49514;43.538;-5.708;2023-04-03T12:32:08;14.68;;;1.73;;
60233;SDS011;49514;43.538;-5.708;2023-04-03T12:35:30;12.63;;;1.55;;
60233;SDS011;49514;43.538;-5.708;2023-04-03T12:44:05;14.80;;;1.83;;
60233;SDS011;49514;43.538;-5.708;2023-04-03T12:46:51;12.35;;;1.75;;
60233;SDS011;49514;43.538;-5.708;2023-04-03T12:51:55;13.23;;;1.90;;
60233;SDS011;49514;43.538;-5.708;2023-04-03T12:54:23;15.07;;;2.30;;
60233;SDS011;49514;43.538;-5.708;2023-04-03T12:57:13;11.82;;;2.10;;
60233;SDS011;49514;43.538;-5.708;2023-04-03T12:59:44;15.98;;;2.10;;
60233;SDS011;49514;43.538;-5.708;2023-04-03T13:04:55;13.52;;;2.15;;
60233;SDS011;49514;43.538;-5.708;2023-04-03T13:07:34;13.38;;;2.08;;
60233;SDS011;49514;43.538;-5.708;2023-04-03T13:12:56;13.40;;;1.90;;
60233;SDS011;49514;43.538;-5.708;2023-04-03T13:17:52;15.35;;;2.08;;
60233;SDS011;49514;43.538;-5.708;2023-04-03T13:25:18;13.38;;;1.98;;
60233;SDS011;49514;43.538;-5.708;2023-04-03T13:27:47;11.73;;;1.90;;
60233;SDS011;49514;43.538;-5.708;2023-04-03T13:30:25;9.32;;;1.70;;
60233;SDS011;49514;43.538;-5.708;2023-04-03T13:32:55;15.32;;;2.10;;
60233;SDS011;49514;43.538;-5.708;2023-04-03T13:35:26;10.07;;;1.80;;
60233;SDS011;49514;43.538;-5.708;2023-04-03T13:37:57;12.15;;;1.77;;
60233;SDS011;49514;43.538;-5.708;2023-04-03T13:40:26;12.70;;;2.30;;
60233;SDS011;49514;43.538;-5.708;2023-04-03T13:43:14;12.70;;;2.10;;
60233;SDS011;49514;43.538;-5.708;2023-04-03T13:48:51;17.17;;;2.72;;
60233;SDS011;49514;43.538;-5.708;2023-04-03T13:51:24;14.85;;;2.30;;
60233;SDS011;49514;43.538;-5.708;2023-04-03T13:53:57;12.63;;;1.77;;
60233;SDS011;49514;43.538;-5.708;2023-04-03T13:59:29;12.32;;;2.22;;
60233;SDS011;49514;43.538;-5.708;2023-04-03T14:02:05;17.60;;;1.85;;
60233;SDS011;49514;43.538;-5.708;2023-04-03T14:07:12;15.75;;;2.33;;
60233;SDS011;49514;43.538;-5.708;2023-04-03T14:09:40;9.30;;;1.80;;
60233;SDS011;49514;43.538;-5.708;2023-04-03T14:12:08;10.85;;;2.15;;
60233;SDS011;49514;43.538;-5.708;2023-04-03T14:14:42;12.07;;;2.08;;
60233;SDS011;49514;43.538;-5.708;2023-04-03T14:17:16;13.77;;;2.15;;
60233;SDS011;49514;43.538;-5.708;2023-04-03T16:03:12;10.10;;;1.58;;
60233;SDS011;49514;43.538;-5.708;2023-04-03T16:05:42;10.45;;;1.65;;
60233;SDS011;49514;43.538;-5.708;2023-04-03T16:08:09;11.05;;;1.83;;
60233;SDS011;49514;43.538;-5.708;2023-04-03T16:10:36;11.18;;;1.65;;
60233;SDS011;49514;43.538;-5.708;2023-04-03T16:13:05;10.30;;;1.77;;
60233;SDS011;49514;43.538;-5.708;2023-04-03T16:15:31;7.53;;;1.65;;
60233;SDS011;49514;43.538;-5.708;2023-04-03T16:18:00;8.57;;;1.60;;
60233;SDS011;49514;43.538;-5.708;2023-04-03T16:20:27;10.65;;;1.40;;
60233;SDS011;49514;43.538;-5.708;2023-04-03T16:25:22;12.55;;;1.58;;
60233;SDS011;49514;43.538;-5.708;2023-04-03T16:27:48;5.10;;;1.20;;
60233;SDS011;49514;43.538;-5.708;2023-04-03T16:30:15;6.05;;;1.20;;
60233;SDS011;49514;43.538;-5.708;2023-04-03T16:32:42;5.63;;;1.23;;
60233;SDS011;49514;43.538;-5.708;2023-04-03T16:35:09;10.63;;;1.55;;
60233;SDS011;49514;43.538;-5.708;2023-04-03T16:37:37;6.22;;;1.35;;
60233;SDS011;49514;43.538;-5.708;2023-04-03T16:40:05;4.72;;;1.13;;
60233;SDS011;49514;43.538;-5.708;2023-04-03T16:42:33;9.57;;;1.45;;
60233;SDS011;49514;43.538;-5.708;2023-04-03T16:44:59;7.68;;;1.45;;
60233;SDS011;49514;43.538;-5.708;2023-04-03T16:47:29;6.18;;;1.60;;
60233;SDS011;49514;43.538;-5.708;2023-04-03T16:49:56;6.00;;;1.50;;
60233;SDS011;49514;43.538;-5.708;2023-04-03T16:52:22;2.85;;;0.93;;
60233;SDS011;49514;43.538;-5.708;2023-04-03T16:54:50;9.18;;;1.52;;
60233;SDS011;49514;43.538;-5.708;2023-04-03T16:57:21;6.28;;;1.10;;
60233;SDS011;49514;43.538;-5.708;2023-04-03T16:59:50;7.32;;;1.60;;
60233;SDS011;49514;43.538;-5.708;2023-04-03T17:02:18;6.70;;;1.45;;
60233;SDS011;49514;43.538;-5.708;2023-04-03T17:04:46;8.77;;;1.77;;
60233;SDS011;49514;43.538;-5.708;2023-04-03T17:07:12;6.80;;;1.23;;
60233;SDS011;49514;43.538;-5.708;2023-04-03T17:14:32;8.20;;;1.58;;
60233;SDS011;49514;43.538;-5.708;2023-04-03T17:16:59;14.00;;;1.75;;
60233;SDS011;49514;43.538;-5.708;2023-04-03T17:19:25;10.80;;;1.80;;
60233;SDS011;49514;43.538;-5.708;2023-04-03T17:21:54;8.53;;;1.83;;
60233;SDS011;49514;43.538;-5.708;2023-04-03T17:24:21;10.05;;;1.77;;
60233;SDS011;49514;43.538;-5.708;2023-04-03T17:26:47;7.32;;;1.60;;
60233;SDS011;49514;43.538;-5.708;2023-04-03T17:29:14;7.68;;;1.90;;
60233;SDS011;49514;43.538;-5.708;2023-04-03T17:31:41;6.40;;;1.40;;
60233;SDS011;49514;43.538;-5.708;2023-04-03T17:34:07;13.48;;;1.92;;
60233;SDS011;49514;43.538;-5.708;2023-04-03T17:36:37;11.07;;;1.75;;
60233;SDS011;49514;43.538;-5.708;2023-04-03T17:39:04;4.75;;;1.33;;
60233;SDS011;49514;43.538;-5.708;2023-04-03T17:41:31;6.45;;;1.70;;
60233;SDS011;49514;43.538;-5.708;2023-04-03T17:43:57;6.13;;;1.48;;
60233;SDS011;49514;43.538;-5.708;2023-04-03T17:46:25;9.48;;;1.77;;
60233;SDS011;49514;43.538;-5.708;2023-04-03T17:48:52;12.23;;;2.37;;
60233;SDS011;49514;43.538;-5.708;2023-04-03T17:51:20;9.65;;;1.75;;
60233;SDS011;49514;43.538;-5.708;2023-04-03T17:53:48;8.20;;;1.60;;
60233;SDS011;49514;43.538;-5.708;2023-04-03T17:56:16;6.25;;;1.20;;
60233;SDS011;49514;43.538;-5.708;2023-04-03T17:58:45;6.97;;;1.08;;
60233;SDS011;49514;43.538;-5.708;2023-04-03T18:01:13;6.57;;;1.70;;
60233;SDS011;49514;43.538;-5.708;2023-04-03T18:03:41;5.57;;;1.63;;
60233;SDS011;49514;43.538;-5.708;2023-04-03T18:06:10;6.55;;;1.30;;
60233;SDS011;49514;43.538;-5.708;2023-04-03T18:08:41;9.70;;;1.50;;
60233;SDS011;49514;43.538;-5.708;2023-04-03T18:11:13;4.57;;;1.40;;
60233;SDS011;49514;43.538;-5.708;2023-04-03T18:13:40;7.97;;;1.48;;
60233;SDS011;49514;43.538;-5.708;2023-04-03T18:16:08;6.03;;;1.67;;
60233;SDS011;49514;43.538;-5.708;2023-04-03T18:18:36;6.07;;;1.38;;
60233;SDS011;49514;43.538;-5.708;2023-04-03T18:21:04;7.43;;;1.60;;
60233;SDS011;49514;43.538;-5.708;2023-04-03T18:23:34;5.55;;;1.27;;
60233;SDS011;49514;43.538;-5.708;2023-04-03T18:26:06;5.78;;;1.15;;
60233;SDS011;49514;43.538;-5.708;2023-04-03T18:28:35;4.30;;;1.20;;
60233;SDS011;49514;43.538;-5.708;2023-04-03T18:31:03;6.97;;;1.70;;
60233;SDS011;49514;43.538;-5.708;2023-04-03T18:33:30;12.10;;;1.75;;
60233;SDS011;49514;43.538;-5.708;2023-04-03T18:35:57;9.63;;;1.55;;
60233;SDS011;49514;43.538;-5.708;2023-04-03T18:38:23;9.40;;;1.60;;
60233;SDS011;49514;43.538;-5.708;2023-04-03T18:40:50;4.68;;;1.08;;
60233;SDS011;49514;43.538;-5.708;2023-04-03T18:43:18;9.55;;;2.50;;
60233;SDS011;49514;43.538;-5.708;2023-04-03T18:45:44;9.88;;;1.80;;
60233;SDS011;49514;43.538;-5.708;2023-04-03T18:48:11;7.07;;;1.30;;
60233;SDS011;49514;43.538;-5.708;2023-04-03T18:50:38;7.32;;;1.70;;
60233;SDS011;49514;43.538;-5.708;2023-04-03T18:53:05;5.85;;;1.50;;
60233;SDS011;49514;43.538;-5.708;2023-04-03T18:55:32;9.60;;;1.70;;
60233;SDS011;49514;43.538;-5.708;2023-04-03T18:58:00;9.55;;;1.60;;
60233;SDS011;49514;43.538;-5.708;2023-04-03T19:00:27;8.15;;;1.83;;
60233;SDS011;49514;43.538;-5.708;2023-04-03T19:02:54;7.72;;;1.50;;
60233;SDS011;49514;43.538;-5.708;2023-04-03T19:05:20;8.05;;;1.75;;
60233;SDS011;49514;43.538;-5.708;2023-04-03T19:07:48;5.93;;;1.20;;
60233;SDS011;49514;43.538;-5.708;2023-04-03T19:10:15;9.80;;;1.85;;
60233;SDS011;49514;43.538;-5.708;2023-04-03T19:12:43;4.78;;;1.20;;
60233;SDS011;49514;43.538;-5.708;2023-04-03T19:15:15;9.90;;;2.43;;
60233;SDS011;49514;43.538;-5.708;2023-04-03T19:17:44;8.98;;;2.05;;
60233;SDS011;49514;43.538;-5.708;2023-04-03T19:20:11;10.53;;;2.00;;
60233;SDS011;49514;43.538;-5.708;2023-04-03T19:22:40;11.20;;;2.15;;
60233;SDS011;49514;43.538;-5.708;2023-04-03T19:25:08;9.50;;;1.90;;
60233;SDS011;49514;43.538;-5.708;2023-04-03T19:27:36;4.35;;;1.52;;
60233;SDS011;49514;43.538;-5.708;2023-04-03T19:30:04;8.13;;;1.55;;
60233;SDS011;49514;43.538;-5.708;2023-04-03T19:32:32;9.50;;;1.70;;
60233;SDS011;49514;43.538;-5.708;2023-04-03T19:34:59;9.80;;;2.13;;
60233;SDS011;49514;43.538;-5.708;2023-04-03T19:37:26;8.05;;;1.60;;
60233;SDS011;49514;43.538;-5.708;2023-04-03T19:39:54;6.30;;;1.55;;
60233;SDS011;49514;43.538;-5.708;2023-04-03T19:42:21;10.18;;;1.67;;
60233;SDS011;49514;43.538;-5.708;2023-04-03T19:44:48;8.40;;;1.95;;
60233;SDS011;49514;43.538;-5.708;2023-04-03T19:47:16;5.10;;;1.75;;
60233;SDS011;49514;43.538;-5.708;2023-04-03T19:49:44;9.07;;;1.63;;
60233;SDS011;49514;43.538;-5.708;2023-04-03T19:52:11;8.90;;;1.80;;
60233;SDS011;49514;43.538;-5.708;2023-04-03T19:54:38;5.13;;;1.60;;
60233;SDS011;49514;43.538;-5.708;2023-04-03T19:57:05;8.55;;;1.65;;
60233;SDS011;49514;43.538;-5.708;2023-04-03T19:59:32;9.88;;;2.25;;
60233;SDS011;49514;43.538;-5.708;2023-04-03T20:01:59;7.68;;;1.80;;
60233;SDS011;49514;43.538;-5.708;2023-04-03T20:04:26;7.65;;;1.80;;
60233;SDS011;49514;43.538;-5.708;2023-04-03T20:06:52;13.10;;;2.20;;
60233;SDS011;49514;43.538;-5.708;2023-04-03T20:09:19;5.80;;;1.50;;
60233;SDS011;49514;43.538;-5.708;2023-04-03T20:11:47;13.38;;;2.38;;
60233;SDS011;49514;43.538;-5.708;2023-04-03T20:14:14;8.77;;;2.22;;
60233;SDS011;49514;43.538;-5.708;2023-04-03T20:16:42;10.02;;;2.08;;
60233;SDS011;49514;43.538;-5.708;2023-04-03T20:19:10;11.65;;;2.00;;
60233;SDS011;49514;43.538;-5.708;2023-04-03T20:21:37;7.10;;;1.83;;
60233;SDS011;49514;43.538;-5.708;2023-04-03T20:24:05;12.93;;;2.38;;
60233;SDS011;49514;43.538;-5.708;2023-04-03T20:26:33;14.75;;;2.58;;
60233;SDS011;49514;43.538;-5.708;2023-04-03T20:29:08;15.10;;;2.30;;
60233;SDS011;49514;43.538;-5.708;2023-04-03T20:31:35;16.02;;;2.70;;
60233;SDS011;49514;43.538;-5.708;2023-04-03T20:34:03;7.43;;;2.13;;
60233;SDS011;49514;43.538;-5.708;2023-04-03T20:36:30;7.30;;;1.95;;
60233;SDS011;49514;43.538;-5.708;2023-04-03T20:38:58;15.07;;;2.42;;
60233;SDS011;49514;43.538;-5.708;2023-04-03T20:41:25;10.77;;;2.10;;
60233;SDS011;49514;43.538;-5.708;2023-04-03T20:43:52;10.00;;;2.10;;
60233;SDS011;49514;43.538;-5.708;2023-04-03T20:46:19;11.32;;;2.28;;
60233;SDS011;49514;43.538;-5.708;2023-04-03T20:48:48;12.60;;;2.72;;
60233;SDS011;49514;43.538;-5.708;2023-04-03T20:51:17;13.00;;;2.10;;
60233;SDS011;49514;43.538;-5.708;2023-04-03T20:53:45;8.65;;;1.92;;
60233;SDS011;49514;43.538;-5.708;2023-04-03T20:56:13;9.23;;;2.13;;
60233;SDS011;49514;43.538;-5.708;2023-04-03T20:58:41;12.45;;;2.03;;
60233;SDS011;49514;43.538;-5.708;2023-04-03T21:01:20;14.23;;;2.03;;
60233;SDS011;49514;43.538;-5.708;2023-04-03T21:03:49;9.18;;;2.30;;
60233;SDS011;49514;43.538;-5.708;2023-04-03T21:20:47;10.40;;;2.08;;
60233;SDS011;49514;43.538;-5.708;2023-04-03T21:23:15;9.63;;;2.22;;
60233;SDS011;49514;43.538;-5.708;2023-04-03T21:25:42;11.90;;;2.10;;
60233;SDS011;49514;43.538;-5.708;2023-04-03T21:28:09;14.95;;;2.03;;
60233;SDS011;49514;43.538;-5.708;2023-04-03T21:30:36;10.23;;;2.17;;
60233;SDS011;49514;43.538;-5.708;2023-04-03T21:33:03;9.05;;;1.80;;